createdAt,value
2018-12-06T00:01:59.080Z,30.33
2018-12-06T00:04:28.143Z,39.40
2018-12-06T00:06:57.200Z,37.30
2018-12-06T00:09:26.507Z,38.13
2018-12-06T00:11:55.822Z,40.00
2018-12-06T00:14:24.872Z,38.70
2018-12-06T00:16:55.223Z,43.07
2018-12-06T00:19:24.365Z,37.50
2018-12-06T00:21:53.423Z,37.13
2018-12-06T00:24:22.471Z,37.10
2018-12-06T00:26:51.867Z,40.53
2018-12-06T00:29:20.920Z,39.93
2018-12-06T00:31:50.028Z,37.27
2018-12-06T00:34:19.136Z,36.70
2018-12-06T00:36:48.283Z,35.70
2018-12-06T00:39:17.367Z,37.63
2018-12-06T00:41:46.394Z,39.43
2018-12-06T00:44:15.824Z,40.33
2018-12-06T00:46:45.043Z,38.10
2018-12-06T00:49:14.070Z,36.63
2018-12-06T00:51:43.136Z,34.00
2018-12-06T00:54:12.171Z,31.80
2018-12-06T00:56:41.240Z,32.67
2018-12-06T00:59:10.318Z,33.07
2018-12-06T01:01:39.373Z,30.40
2018-12-06T01:04:08.498Z,30.93
2018-12-06T01:06:37.552Z,32.67
2018-12-06T01:09:06.668Z,32.03
2018-12-06T01:11:35.811Z,32.43
2018-12-06T01:14:04.934Z,37.80
2018-12-06T01:16:33.972Z,42.90
2018-12-06T01:19:03.036Z,32.77
2018-12-06T01:21:32.226Z,32.30
2018-12-06T01:24:01.284Z,30.70
2018-12-06T01:26:30.339Z,32.13
2018-12-06T01:28:59.393Z,32.87
2018-12-06T01:31:28.468Z,32.30
2018-12-06T01:33:57.538Z,32.90
2018-12-06T01:36:26.579Z,31.03
2018-12-06T01:38:55.674Z,29.70
2018-12-06T01:41:24.738Z,36.37
2018-12-06T01:43:53.809Z,34.60
2018-12-06T01:46:22.849Z,34.03
2018-12-06T01:48:51.886Z,33.57
2018-12-06T01:51:20.953Z,33.47
2018-12-06T01:53:50.003Z,37.20
2018-12-06T01:56:19.045Z,33.10
2018-12-06T01:58:48.149Z,30.97
2018-12-06T02:01:17.307Z,33.90
2018-12-06T02:03:46.354Z,39.40
2018-12-06T02:06:15.421Z,34.47
2018-12-06T02:08:44.447Z,40.40
2018-12-06T02:11:13.520Z,39.03
2018-12-06T02:13:42.585Z,37.27
2018-12-06T02:16:11.619Z,33.57
2018-12-06T02:18:40.669Z,32.40
2018-12-06T02:21:09.728Z,35.63
2018-12-06T02:23:38.775Z,35.07
2018-12-06T02:26:07.840Z,33.70
2018-12-06T02:28:36.876Z,29.67
2018-12-06T02:31:05.964Z,35.10
2018-12-06T02:33:35.025Z,37.90
2018-12-06T02:36:04.140Z,29.67
2018-12-06T02:38:33.214Z,37.80
2018-12-06T02:41:02.278Z,27.23
2018-12-06T02:43:31.399Z,31.20
2018-12-06T02:46:00.489Z,27.93
2018-12-06T02:48:29.548Z,31.40
2018-12-06T02:50:58.619Z,30.67
2018-12-06T02:53:27.826Z,25.13
2018-12-06T02:55:56.894Z,30.90
2018-12-06T02:58:25.927Z,24.90
2018-12-06T03:00:55.054Z,22.60
2018-12-06T03:03:24.223Z,24.37
2018-12-06T03:05:53.355Z,31.30
2018-12-06T03:08:22.417Z,27.07
2018-12-06T03:10:51.455Z,22.97
2018-12-06T03:13:20.522Z,27.43
2018-12-06T03:15:49.584Z,21.90
2018-12-06T03:18:18.647Z,30.33
2018-12-06T03:20:47.735Z,28.60
2018-12-06T03:23:16.773Z,28.80
2018-12-06T03:25:45.884Z,30.17
2018-12-06T03:28:14.949Z,20.90
2018-12-06T03:30:44.035Z,25.10
2018-12-06T03:33:13.075Z,23.97
2018-12-06T03:35:42.121Z,26.60
2018-12-06T03:38:11.218Z,23.93
2018-12-06T03:40:40.251Z,28.67
2018-12-06T03:43:09.351Z,24.23
2018-12-06T03:45:38.397Z,24.53
2018-12-06T03:48:07.545Z,21.00
2018-12-06T03:50:36.558Z,24.37
2018-12-06T03:53:05.643Z,23.30
2018-12-06T03:55:34.666Z,26.73
2018-12-06T03:58:03.731Z,25.83
2018-12-06T04:00:32.785Z,26.87
2018-12-06T04:03:01.834Z,24.43
2018-12-06T04:05:30.904Z,26.37
2018-12-06T04:07:59.931Z,24.03
2018-12-06T04:10:29.002Z,23.17
2018-12-06T04:12:58.129Z,21.73
2018-12-06T04:15:27.159Z,23.30
2018-12-06T04:17:56.227Z,18.30
2018-12-06T04:20:26.474Z,22.67
2018-12-06T04:22:55.675Z,22.10
2018-12-06T04:25:24.742Z,23.37
2018-12-06T04:27:53.794Z,16.17
2018-12-06T04:30:22.845Z,18.77
2018-12-06T04:32:51.903Z,16.63
2018-12-06T04:35:20.980Z,19.20
2018-12-06T04:37:50.026Z,18.13
2018-12-06T04:40:19.094Z,21.97
2018-12-06T04:42:48.216Z,22.30
2018-12-06T04:45:17.275Z,20.73
2018-12-06T04:47:46.349Z,17.93
2018-12-06T04:50:15.374Z,19.53
2018-12-06T04:52:44.440Z,22.73
2018-12-06T04:55:13.547Z,23.23
2018-12-06T04:57:42.615Z,25.67
2018-12-06T05:00:11.716Z,19.93
2018-12-06T05:02:40.863Z,17.83
2018-12-06T05:05:09.978Z,22.63
2018-12-06T05:07:39.027Z,22.10
2018-12-06T05:10:08.090Z,22.87
2018-12-06T05:12:37.161Z,19.63
2018-12-06T05:15:06.332Z,20.80
2018-12-06T05:17:35.385Z,21.77
2018-12-06T05:20:05.298Z,21.97
2018-12-06T05:22:34.382Z,17.63
2018-12-06T05:25:04.831Z,24.57
2018-12-06T05:27:33.912Z,22.50
2018-12-06T05:30:03.212Z,23.20
2018-12-06T05:32:32.294Z,25.13
2018-12-06T05:35:01.325Z,24.00
2018-12-06T05:37:30.445Z,22.70
2018-12-06T05:39:59.473Z,22.73
2018-12-06T05:42:28.639Z,22.77
2018-12-06T05:44:57.716Z,23.70
2018-12-06T05:47:26.802Z,21.83
2018-12-06T05:49:55.883Z,22.63
2018-12-06T05:52:24.959Z,19.80
2018-12-06T05:54:54.022Z,20.40
2018-12-06T05:57:23.116Z,21.33
2018-12-06T05:59:52.275Z,25.80
2018-12-06T06:02:21.933Z,27.00
2018-12-06T06:04:50.976Z,23.37
2018-12-06T06:07:20.019Z,28.07
2018-12-06T06:09:49.100Z,20.10
2018-12-06T06:12:18.227Z,26.90
2018-12-06T06:14:47.289Z,26.83
2018-12-06T06:17:16.331Z,28.30
2018-12-06T06:19:45.392Z,26.73
2018-12-06T06:22:14.457Z,22.93
2018-12-06T06:24:43.494Z,30.10
2018-12-06T06:27:12.568Z,32.10
2018-12-06T06:29:41.599Z,25.03
2018-12-06T06:32:10.665Z,25.97
2018-12-06T06:34:39.705Z,26.03
2018-12-06T06:37:08.802Z,21.70
2018-12-06T06:39:37.871Z,24.40
2018-12-06T06:42:06.963Z,28.70
2018-12-06T06:44:36.071Z,23.90
2018-12-06T06:47:05.155Z,28.63
2018-12-06T06:49:34.227Z,29.73
2018-12-06T06:52:03.307Z,25.23
2018-12-06T06:54:32.376Z,30.30
2018-12-06T06:57:01.479Z,23.20
2018-12-06T06:59:30.511Z,26.13
2018-12-06T07:01:59.555Z,31.10
2018-12-06T07:04:28.646Z,34.47
2018-12-06T07:06:57.733Z,30.23
2018-12-06T07:09:26.854Z,30.80
2018-12-06T07:11:55.929Z,36.57
2018-12-06T07:14:24.983Z,34.47
2018-12-06T07:16:54.307Z,47.33
2018-12-06T07:19:23.407Z,27.03
2018-12-06T07:21:52.446Z,30.30
2018-12-06T07:24:22.117Z,35.70
2018-12-06T07:26:51.191Z,32.00
2018-12-06T07:29:20.284Z,40.60
2018-12-06T07:31:49.334Z,35.07
2018-12-06T07:34:18.424Z,35.03
2018-12-06T07:36:47.479Z,38.97
2018-12-06T07:39:16.538Z,63.77
2018-12-06T07:41:45.617Z,64.17
2018-12-06T07:44:14.642Z,32.87
2018-12-06T07:46:43.803Z,24.53
2018-12-06T07:49:12.883Z,22.33
2018-12-06T07:51:42.319Z,29.00
2018-12-06T07:54:11.416Z,28.10
2018-12-06T07:56:40.499Z,27.23
2018-12-06T07:59:09.591Z,20.67
2018-12-06T08:01:38.659Z,27.00
2018-12-06T08:04:07.684Z,22.83
2018-12-06T08:06:36.746Z,25.90
2018-12-06T08:09:07.111Z,20.87
2018-12-06T08:11:36.181Z,17.93
2018-12-06T08:14:05.364Z,22.20
2018-12-06T08:16:34.536Z,20.30
2018-12-06T08:19:03.592Z,21.40
2018-12-06T08:21:32.648Z,18.83
2018-12-06T08:24:01.771Z,21.77
2018-12-06T08:26:30.867Z,27.00
2018-12-06T08:28:59.904Z,17.37
2018-12-06T08:31:28.965Z,21.37
2018-12-06T08:34:06.237Z,18.13
2018-12-06T08:36:32.135Z,19.77
2018-12-06T08:39:01.354Z,18.10
2018-12-06T08:41:30.388Z,46.03
2018-12-06T08:43:59.423Z,77.87
2018-12-06T08:46:28.505Z,30.17
2018-12-06T08:49:03.029Z,21.17
2018-12-06T08:51:28.582Z,20.40
2018-12-06T08:53:57.647Z,22.47
2018-12-06T08:56:26.675Z,23.50
2018-12-06T08:58:55.754Z,20.90
2018-12-06T09:01:25.062Z,14.83
2018-12-06T09:03:54.097Z,18.67
2018-12-06T09:06:23.227Z,20.67
2018-12-06T09:08:52.325Z,16.67
2018-12-06T09:11:21.502Z,18.37
2018-12-06T09:13:50.583Z,13.33
2018-12-06T09:16:19.650Z,12.50
2018-12-06T09:18:48.662Z,18.23
2018-12-06T09:21:17.720Z,14.93
2018-12-06T09:23:46.737Z,28.30
2018-12-06T09:26:15.790Z,35.90
2018-12-06T09:28:44.852Z,41.03
2018-12-06T09:31:13.861Z,18.93
2018-12-06T09:34:02.828Z,14.53
2018-12-06T09:36:31.903Z,12.83
2018-12-06T09:39:00.922Z,14.53
2018-12-06T09:41:30.122Z,15.03
2018-12-06T09:43:59.132Z,18.33
2018-12-06T09:46:30.199Z,13.77
2018-12-06T09:48:59.243Z,17.70
2018-12-06T09:51:28.291Z,15.70
2018-12-06T09:53:57.314Z,11.87
2018-12-06T09:56:26.374Z,12.63
2018-12-06T09:58:55.381Z,14.03
2018-12-06T10:01:24.409Z,15.10
2018-12-06T10:03:53.596Z,13.07
2018-12-06T10:06:22.647Z,14.93
2018-12-06T10:08:51.691Z,15.00
2018-12-06T10:11:20.699Z,11.93
2018-12-06T10:13:49.743Z,15.63
2018-12-06T10:16:18.908Z,120.90
2018-12-06T10:18:47.923Z,31.10
2018-12-06T10:21:16.962Z,16.13
2018-12-06T10:23:46.009Z,14.53
2018-12-06T10:26:15.045Z,15.83
2018-12-06T10:28:44.081Z,12.00
2018-12-06T10:31:13.122Z,12.07
2018-12-06T10:33:42.170Z,14.73
2018-12-06T10:36:11.195Z,16.57
2018-12-06T10:38:40.264Z,15.53
2018-12-06T10:41:09.321Z,12.97
2018-12-06T10:43:38.347Z,17.23
2018-12-06T10:46:07.440Z,26.40
2018-12-06T10:48:36.487Z,16.20
2018-12-06T10:51:23.248Z,16.00
2018-12-06T10:53:52.262Z,16.80
2018-12-06T10:56:21.288Z,14.33
2018-12-06T10:58:50.302Z,14.33
2018-12-06T11:01:21.314Z,14.57
2018-12-06T11:04:01.775Z,18.30
2018-12-06T11:06:30.877Z,13.93
2018-12-06T11:08:59.890Z,13.47
2018-12-06T11:11:28.937Z,18.27
2018-12-06T11:13:58.004Z,14.37
2018-12-06T11:16:27.017Z,24.23
2018-12-06T11:18:56.496Z,15.30
2018-12-06T11:21:25.536Z,20.00
2018-12-06T11:23:54.585Z,17.53
2018-12-06T11:27:02.235Z,13.43
2018-12-06T11:29:31.352Z,15.57
2018-12-06T11:32:00.387Z,15.50
2018-12-06T11:34:29.467Z,19.17
2018-12-06T11:36:58.482Z,16.00
2018-12-06T11:39:27.625Z,14.50
2018-12-06T11:41:56.652Z,11.87
2018-12-06T11:44:25.706Z,14.47
2018-12-06T11:46:54.747Z,12.40
2018-12-06T11:49:23.801Z,12.97
2018-12-06T11:51:52.851Z,12.80
2018-12-06T11:54:21.892Z,17.33
2018-12-06T11:56:50.944Z,11.13
2018-12-06T11:59:19.990Z,11.23
2018-12-06T12:01:49.005Z,9.57
2018-12-06T12:04:18.035Z,10.80
2018-12-06T12:06:47.042Z,8.90
2018-12-06T12:09:16.298Z,11.23
2018-12-06T12:11:45.406Z,16.07
2018-12-06T12:14:14.460Z,14.00
2018-12-06T12:16:43.558Z,16.13
2018-12-06T12:19:12.571Z,14.73
2018-12-06T12:21:41.608Z,16.60
2018-12-06T12:24:10.636Z,16.30
2018-12-06T12:26:39.698Z,21.43
2018-12-06T12:29:08.760Z,17.53
2018-12-06T12:31:37.874Z,15.30
2018-12-06T12:34:06.943Z,18.43
2018-12-06T12:36:36.356Z,10.93
2018-12-06T12:39:08.816Z,16.37
2018-12-06T12:41:37.823Z,14.20
2018-12-06T12:44:06.860Z,13.60
2018-12-06T12:46:35.874Z,10.43
2018-12-06T12:49:05.155Z,13.70
2018-12-06T12:51:34.192Z,13.10
2018-12-06T12:54:03.199Z,12.90
2018-12-06T12:56:32.435Z,13.83
2018-12-06T12:59:01.435Z,13.47
2018-12-06T13:01:30.453Z,14.87
2018-12-06T13:03:59.527Z,13.17
2018-12-06T13:06:28.630Z,14.60
2018-12-06T13:08:57.803Z,23.00
2018-12-06T13:11:26.819Z,18.80
2018-12-06T13:13:55.851Z,13.67
2018-12-06T13:16:24.899Z,15.67
2018-12-06T13:18:53.911Z,19.97
2018-12-06T13:21:22.959Z,21.40
2018-12-06T13:23:52.003Z,20.70
2018-12-06T13:26:21.023Z,15.57
2018-12-06T13:28:50.057Z,14.07
2018-12-06T13:31:19.105Z,24.00
2018-12-06T13:33:48.114Z,14.97
2018-12-06T13:36:17.234Z,18.97
2018-12-06T13:38:46.358Z,18.37
2018-12-06T13:41:15.439Z,16.80
2018-12-06T13:43:44.484Z,19.60
2018-12-06T13:46:13.500Z,19.93
2018-12-06T13:48:42.581Z,16.80
2018-12-06T13:51:11.648Z,23.23
2018-12-06T13:53:40.663Z,19.37
2018-12-06T13:56:09.742Z,22.70
2018-12-06T13:58:38.784Z,19.53
2018-12-06T14:01:08.241Z,29.47
2018-12-06T14:03:37.531Z,22.30
2018-12-06T14:06:06.642Z,28.27
2018-12-06T14:08:35.659Z,21.40
2018-12-06T14:11:04.786Z,21.70
2018-12-06T14:13:33.807Z,23.50
2018-12-06T14:16:07.123Z,19.30
2018-12-06T14:18:34.030Z,22.77
2018-12-06T14:21:03.069Z,22.70
2018-12-06T14:23:32.125Z,21.33
2018-12-06T14:26:01.147Z,19.50
2018-12-06T14:28:30.169Z,24.23
2018-12-06T14:30:59.231Z,18.80
2018-12-06T14:33:28.279Z,18.17
2018-12-06T14:35:57.413Z,37.40
2018-12-06T14:38:26.454Z,29.87
2018-12-06T14:40:55.531Z,19.53
2018-12-06T14:43:24.620Z,20.70
2018-12-06T14:45:54.055Z,25.53
2018-12-06T14:48:23.478Z,24.53
2018-12-06T14:50:52.487Z,25.27
2018-12-06T14:53:21.551Z,21.47
2018-12-06T14:55:50.628Z,26.50
2018-12-06T14:58:19.677Z,25.43
2018-12-06T15:00:48.716Z,22.97
2018-12-06T15:03:17.766Z,22.63
2018-12-06T15:05:46.824Z,26.73
2018-12-06T15:08:15.833Z,29.70
2018-12-06T15:10:44.874Z,27.00
2018-12-06T15:13:14.062Z,25.63
2018-12-06T15:15:43.115Z,35.90
2018-12-06T15:18:12.155Z,35.37
2018-12-06T15:20:41.167Z,28.33
2018-12-06T15:23:10.244Z,32.63
2018-12-06T15:25:41.928Z,27.50
2018-12-06T15:28:10.317Z,33.03
2018-12-06T15:30:39.359Z,29.70
2018-12-06T15:33:08.391Z,30.90
2018-12-06T15:35:37.439Z,40.33
2018-12-06T15:38:06.463Z,44.70
2018-12-06T15:40:35.535Z,47.40
2018-12-06T15:43:04.558Z,49.90
2018-12-06T15:45:33.595Z,58.60
2018-12-06T15:48:02.680Z,63.20
2018-12-06T15:50:31.699Z,47.97
2018-12-06T15:53:00.856Z,58.30
2018-12-06T15:55:29.923Z,61.97
2018-12-06T15:57:58.971Z,66.43
2018-12-06T16:00:28.077Z,57.47
2018-12-06T16:02:57.108Z,58.33
2018-12-06T16:05:26.164Z,44.20
2018-12-06T16:07:56.434Z,53.83
2018-12-06T16:10:25.481Z,52.10
2018-12-06T16:12:54.549Z,47.23
2018-12-06T16:15:23.579Z,44.50
2018-12-06T16:17:52.638Z,49.80
2018-12-06T16:20:21.660Z,53.20
2018-12-06T16:22:50.691Z,54.33
2018-12-06T16:25:19.704Z,61.60
2018-12-06T16:27:48.736Z,69.23
2018-12-06T16:30:17.774Z,60.60
2018-12-06T16:32:46.851Z,69.50
2018-12-06T16:35:15.924Z,67.17
2018-12-06T16:37:44.919Z,94.47
2018-12-06T16:40:13.973Z,87.70
2018-12-06T16:42:42.984Z,80.20
2018-12-06T16:45:12.051Z,83.27
2018-12-06T16:47:41.103Z,77.80
2018-12-06T16:50:10.168Z,76.30
2018-12-06T16:52:39.211Z,78.27
2018-12-06T16:55:08.395Z,92.13
2018-12-06T16:57:37.430Z,93.90
2018-12-06T17:00:10.821Z,86.07
2018-12-06T17:02:41.293Z,78.83
2018-12-06T17:05:10.447Z,77.67
2018-12-06T17:07:39.551Z,69.17
2018-12-06T17:10:08.635Z,70.80
2018-12-06T17:12:37.669Z,66.90
2018-12-06T17:15:06.984Z,70.93
2018-12-06T17:17:36.029Z,82.77
2018-12-06T17:20:06.888Z,70.07
2018-12-06T17:22:35.913Z,72.80
2018-12-06T17:25:05.618Z,80.13
2018-12-06T17:27:34.665Z,75.00
2018-12-06T17:30:04.818Z,73.27
2018-12-06T17:32:33.996Z,73.10
2018-12-06T17:35:03.148Z,66.90
2018-12-06T17:37:32.230Z,72.80
2018-12-06T17:40:01.219Z,73.73
2018-12-06T17:42:30.239Z,64.00
2018-12-06T17:44:59.335Z,68.20
2018-12-06T17:47:28.389Z,68.13
2018-12-06T17:49:57.430Z,63.93
2018-12-06T17:52:26.447Z,68.57
2018-12-06T17:54:55.488Z,68.60
2018-12-06T17:57:24.567Z,65.40
2018-12-06T17:59:53.638Z,69.20
2018-12-06T18:02:22.651Z,65.23
2018-12-06T18:04:51.735Z,66.47
2018-12-06T18:07:20.804Z,65.87
2018-12-06T18:09:49.847Z,69.90
2018-12-06T18:12:19.260Z,48.83
2018-12-06T18:14:48.295Z,50.80
2018-12-06T18:17:17.356Z,48.57
2018-12-06T18:19:46.423Z,51.17
2018-12-06T18:22:15.448Z,44.53
2018-12-06T18:24:44.524Z,49.00
2018-12-06T18:27:13.604Z,41.50
2018-12-06T18:29:42.671Z,40.87
2018-12-06T18:32:11.716Z,41.43
2018-12-06T18:34:40.752Z,35.30
2018-12-06T18:37:09.819Z,40.87
2018-12-06T18:39:38.986Z,42.87
2018-12-06T18:42:07.992Z,35.70
2018-12-06T18:44:37.059Z,64.33
2018-12-06T18:47:07.476Z,88.43
2018-12-06T18:49:36.553Z,43.33
2018-12-06T18:52:05.562Z,37.67
2018-12-06T18:54:34.606Z,41.40
2018-12-06T18:57:03.651Z,34.70
2018-12-06T18:59:32.755Z,40.50
2018-12-06T19:02:01.815Z,40.93
2018-12-06T19:04:31.800Z,40.60
2018-12-06T19:07:00.809Z,33.57
2018-12-06T19:09:30.150Z,57.30
2018-12-06T19:11:59.236Z,118.13
2018-12-06T19:14:28.341Z,37.20
2018-12-06T19:16:57.329Z,36.10
2018-12-06T19:19:26.398Z,26.07
2018-12-06T19:21:55.427Z,37.50
2018-12-06T19:24:24.484Z,33.90
2018-12-06T19:26:53.532Z,32.07
2018-12-06T19:29:22.550Z,27.87
2018-12-06T19:31:51.640Z,35.00
2018-12-06T19:34:20.651Z,47.57
2018-12-06T19:36:49.704Z,33.43
2018-12-06T19:39:18.806Z,31.20
2018-12-06T19:41:47.833Z,31.73
2018-12-06T19:44:16.901Z,56.87
2018-12-06T19:46:46.014Z,61.00
2018-12-06T19:49:15.046Z,51.60
2018-12-06T19:51:44.102Z,33.33
2018-12-06T19:54:13.145Z,28.17
2018-12-06T19:56:42.166Z,36.93
2018-12-06T19:59:11.224Z,63.60
2018-12-06T20:01:40.247Z,67.07
2018-12-06T20:04:09.405Z,113.13
2018-12-06T20:06:38.445Z,34.90
2018-12-06T20:09:08.632Z,40.33
2018-12-06T20:11:37.707Z,33.33
2018-12-06T20:14:06.797Z,33.20
2018-12-06T20:16:35.816Z,31.03
2018-12-06T20:19:04.859Z,35.10
2018-12-06T20:21:33.924Z,35.40
2018-12-06T20:24:03.691Z,38.50
2018-12-06T20:26:32.720Z,35.23
2018-12-06T20:29:01.793Z,34.53
2018-12-06T20:31:30.813Z,37.13
2018-12-06T20:33:59.900Z,41.33
2018-12-06T20:36:28.919Z,48.53
2018-12-06T20:38:57.984Z,33.30
2018-12-06T20:41:27.028Z,28.20
2018-12-06T20:43:56.048Z,26.80
2018-12-06T20:46:25.095Z,36.20
2018-12-06T20:48:54.147Z,29.40
2018-12-06T20:51:23.174Z,28.47
2018-12-06T20:53:52.214Z,37.13
2018-12-06T20:56:21.312Z,29.67
2018-12-06T20:58:50.361Z,36.47
2018-12-06T21:01:19.455Z,38.97
2018-12-06T21:03:48.488Z,37.80
2018-12-06T21:06:17.541Z,37.87
2018-12-06T21:08:46.580Z,39.87
2018-12-06T21:11:15.847Z,39.03
2018-12-06T21:13:44.909Z,38.77
2018-12-06T21:16:13.943Z,38.67
2018-12-06T21:18:43.028Z,30.27
2018-12-06T21:21:12.043Z,36.30
2018-12-06T21:23:41.196Z,35.03
2018-12-06T21:26:10.231Z,40.07
2018-12-06T21:28:39.302Z,38.57
2018-12-06T21:31:08.372Z,31.43
2018-12-06T21:33:37.391Z,33.77
2018-12-06T21:36:06.445Z,35.53
2018-12-06T21:38:35.504Z,36.90
2018-12-06T21:41:04.661Z,36.60
2018-12-06T21:43:33.771Z,28.97
2018-12-06T21:46:02.874Z,34.10
2018-12-06T21:48:31.921Z,33.57
2018-12-06T21:51:00.936Z,34.10
2018-12-06T21:53:29.971Z,32.27
2018-12-06T21:55:58.996Z,39.67
2018-12-06T21:58:28.041Z,32.73
2018-12-06T22:00:57.067Z,38.80
2018-12-06T22:03:26.127Z,40.23
2018-12-06T22:05:55.150Z,35.17
2018-12-06T22:08:24.199Z,40.67
2018-12-06T22:10:53.241Z,38.93
2018-12-06T22:13:22.338Z,39.40
2018-12-06T22:15:51.448Z,41.30
2018-12-06T22:18:20.475Z,38.90
2018-12-06T22:20:49.511Z,37.13
2018-12-06T22:23:18.565Z,34.90
2018-12-06T22:25:47.579Z,32.10
2018-12-06T22:28:16.592Z,34.33
2018-12-06T22:30:45.648Z,32.80
2018-12-06T22:33:14.710Z,31.93
2018-12-06T22:35:43.775Z,34.80
2018-12-06T22:38:12.850Z,31.10
2018-12-06T22:40:41.915Z,31.93
2018-12-06T22:43:10.931Z,39.00
2018-12-06T22:45:55.040Z,36.93
2018-12-06T22:48:24.568Z,33.20
2018-12-06T22:50:53.735Z,42.47
2018-12-06T22:53:22.853Z,34.47
2018-12-06T22:55:51.867Z,37.23
2018-12-06T22:58:20.876Z,33.50
2018-12-06T23:00:53.425Z,44.63
2018-12-06T23:03:22.524Z,41.40
2018-12-06T23:05:51.555Z,42.30
2018-12-06T23:08:20.969Z,38.90
2018-12-06T23:10:50.047Z,39.93
2018-12-06T23:13:19.080Z,44.50
2018-12-06T23:15:48.197Z,42.23
2018-12-06T23:18:17.349Z,38.57
2018-12-06T23:20:46.500Z,41.90
2018-12-06T23:23:16.348Z,40.20
2018-12-06T23:25:45.418Z,34.90
2018-12-06T23:28:14.434Z,40.27
2018-12-06T23:30:43.485Z,35.43
2018-12-06T23:33:12.530Z,36.23
2018-12-06T23:35:41.640Z,37.97
2018-12-06T23:38:10.652Z,48.43
2018-12-06T23:40:39.675Z,42.53
2018-12-06T23:43:08.715Z,38.37
2018-12-06T23:45:37.796Z,43.13
2018-12-06T23:48:06.842Z,41.20
2018-12-06T23:50:35.888Z,45.27
2018-12-06T23:53:04.909Z,45.07
2018-12-06T23:55:33.982Z,44.27
2018-12-06T23:58:03.029Z,49.90
